createdAt,value
2023-02-18T00:02:20.626Z,6.24
2023-02-18T00:04:47.066Z,6.19
2023-02-18T00:07:13.499Z,5.98
2023-02-18T00:09:40.045Z,5.87
2023-02-18T00:12:06.599Z,5.61
2023-02-18T00:14:33.069Z,5.60
2023-02-18T00:16:59.555Z,5.82
2023-02-18T00:19:26.027Z,5.74
2023-02-18T00:21:52.461Z,5.85
2023-02-18T00:24:18.891Z,5.78
2023-02-18T00:26:45.737Z,5.80
2023-02-18T00:29:12.513Z,5.92
2023-02-18T00:31:39.563Z,5.89
2023-02-18T00:34:06.360Z,5.88
2023-02-18T00:36:34.076Z,5.93
2023-02-18T00:39:01.416Z,5.82
2023-02-18T00:41:28.671Z,5.59
2023-02-18T00:43:55.441Z,5.55
2023-02-18T00:46:22.452Z,5.98
2023-02-18T00:48:48.931Z,5.55
2023-02-18T00:51:15.663Z,5.44
2023-02-18T00:53:42.121Z,5.37
2023-02-18T00:56:08.782Z,5.52
2023-02-18T00:58:36.389Z,5.58
2023-02-18T01:01:07.275Z,5.67
2023-02-18T01:03:34.175Z,5.39
2023-02-18T01:06:00.656Z,5.47
2023-02-18T01:08:27.103Z,5.59
2023-02-18T01:10:55.378Z,5.50
2023-02-18T01:13:22.160Z,5.44
2023-02-18T01:15:48.838Z,5.31
2023-02-18T01:18:15.648Z,5.44
2023-02-18T01:20:43.314Z,5.48
2023-02-18T01:23:10.356Z,5.48
2023-02-18T01:25:37.090Z,5.31
2023-02-18T01:28:04.055Z,5.35
2023-02-18T01:30:30.655Z,5.24
2023-02-18T01:32:57.890Z,5.20
2023-02-18T01:35:24.443Z,5.19
2023-02-18T01:37:51.577Z,5.10
2023-02-18T01:40:19.917Z,5.10
2023-02-18T01:42:46.580Z,5.14
2023-02-18T01:45:31.764Z,5.35
2023-02-18T01:47:58.304Z,5.36
2023-02-18T01:50:25.068Z,5.27
2023-02-18T01:52:51.591Z,5.38
2023-02-18T01:55:18.087Z,5.27
2023-02-18T01:57:44.525Z,5.23
2023-02-18T02:00:12.879Z,5.24
2023-02-18T02:02:46.735Z,5.26
2023-02-18T02:05:13.244Z,5.14
2023-02-18T02:07:41.602Z,5.10
2023-02-18T02:10:09.319Z,5.14
2023-02-18T02:12:45.491Z,5.14
2023-02-18T02:15:24.193Z,4.88
2023-02-18T02:18:09.606Z,4.99
2023-02-18T02:20:36.057Z,4.95
2023-02-18T02:23:06.160Z,4.69
2023-02-18T02:25:55.927Z,4.95
2023-02-18T02:28:22.357Z,4.73
2023-02-18T02:31:03.274Z,4.75
2023-02-18T02:33:48.842Z,4.70
2023-02-18T02:36:44.544Z,4.78
2023-02-18T02:39:16.980Z,4.76
2023-02-18T02:41:48.257Z,4.83
2023-02-18T02:44:17.946Z,4.67
2023-02-18T02:46:46.007Z,4.67
2023-02-18T02:49:18.648Z,4.62
2023-02-18T02:51:52.888Z,4.56
2023-02-18T02:54:24.243Z,4.50
2023-02-18T02:57:11.634Z,4.65
2023-02-18T02:59:49.598Z,4.24
2023-02-18T03:02:41.178Z,4.50
2023-02-18T03:05:15.990Z,4.84
2023-02-18T03:07:51.628Z,4.71
2023-02-18T03:10:37.065Z,4.54
2023-02-18T03:13:09.523Z,4.53
2023-02-18T03:16:08.931Z,4.50
2023-02-18T03:18:46.910Z,4.27
2023-02-18T03:21:13.430Z,4.78
2023-02-18T03:23:45.032Z,4.48
2023-02-18T03:26:14.904Z,4.47
2023-02-18T03:28:41.984Z,4.57
2023-02-18T03:31:13.749Z,5.92
2023-02-18T03:33:42.981Z,4.89
2023-02-18T03:36:10.444Z,4.84
2023-02-18T03:38:40.351Z,5.24
2023-02-18T03:41:07.268Z,5.29
2023-02-18T03:43:35.770Z,5.45
2023-02-18T03:46:02.955Z,5.29
2023-02-18T03:48:29.540Z,5.05
2023-02-18T03:50:56.082Z,5.26
2023-02-18T03:53:23.075Z,5.18
2023-02-18T03:55:49.978Z,5.52
2023-02-18T03:58:16.536Z,4.90
2023-02-18T04:00:43.008Z,4.98
2023-02-18T04:03:09.489Z,4.97
2023-02-18T04:05:36.516Z,5.10
2023-02-18T04:08:03.123Z,5.32
2023-02-18T04:10:29.566Z,5.67
2023-02-18T04:12:56.087Z,5.42
2023-02-18T04:15:22.506Z,5.37
2023-02-18T04:17:49.236Z,5.32
2023-02-18T04:20:16.582Z,5.16
2023-02-18T04:22:43.115Z,5.31
2023-02-18T04:25:09.534Z,5.17
2023-02-18T04:27:36.083Z,5.22
2023-02-18T04:30:03.481Z,5.49
2023-02-18T04:32:29.997Z,5.22
2023-02-18T04:34:56.548Z,5.16
2023-02-18T04:37:23.062Z,5.22
2023-02-18T04:39:49.555Z,5.42
2023-02-18T04:42:16.053Z,5.46
2023-02-18T04:44:42.518Z,5.59
2023-02-18T04:47:10.096Z,5.41
2023-02-18T04:49:36.682Z,5.54
2023-02-18T04:52:03.607Z,5.52
2023-02-18T04:54:30.416Z,5.48
2023-02-18T04:56:56.952Z,5.37
2023-02-18T04:59:23.608Z,5.47
2023-02-18T05:01:50.111Z,5.41
2023-02-18T05:04:17.473Z,5.55
2023-02-18T05:06:44.511Z,5.36
2023-02-18T05:09:11.347Z,5.35
2023-02-18T05:11:37.857Z,5.19
2023-02-18T05:14:04.373Z,5.32
2023-02-18T05:16:31.003Z,5.38
2023-02-18T05:18:57.609Z,5.06
2023-02-18T05:21:24.143Z,5.03
2023-02-18T05:23:50.616Z,5.07
2023-02-18T05:26:17.353Z,5.08
2023-02-18T05:28:43.813Z,5.02
2023-02-18T05:31:10.430Z,5.00
2023-02-18T05:33:36.939Z,5.08
2023-02-18T05:36:03.509Z,5.13
2023-02-18T05:38:30.044Z,5.16
2023-02-18T05:40:56.541Z,5.00
2023-02-18T05:43:23.020Z,4.96
2023-02-18T05:45:49.579Z,5.18
2023-02-18T05:48:16.008Z,5.14
2023-02-18T05:50:42.461Z,5.09
2023-02-18T05:53:08.988Z,5.02
2023-02-18T05:55:39.053Z,5.02
2023-02-18T05:58:06.067Z,4.99
2023-02-18T06:00:32.591Z,5.11
2023-02-18T06:02:59.187Z,4.96
2023-02-18T06:05:25.785Z,5.11
2023-02-18T06:07:52.221Z,4.92
2023-02-18T06:10:18.826Z,4.91
2023-02-18T06:12:45.312Z,5.05
2023-02-18T06:15:11.736Z,4.97
2023-02-18T06:17:38.170Z,5.11
2023-02-18T06:20:05.140Z,5.14
2023-02-18T06:22:31.648Z,4.97
2023-02-18T06:24:58.117Z,5.03
2023-02-18T06:27:24.605Z,5.15
2023-02-18T06:29:51.075Z,6.62
2023-02-18T06:32:17.610Z,5.45
2023-02-18T06:34:44.183Z,5.18
2023-02-18T06:37:10.610Z,5.84
2023-02-18T06:39:38.558Z,5.49
2023-02-18T06:42:05.064Z,5.13
2023-02-18T06:44:31.544Z,6.26
2023-02-18T06:46:58.098Z,5.71
2023-02-18T06:49:24.640Z,5.41
2023-02-18T06:51:51.090Z,5.46
2023-02-18T06:54:17.586Z,5.47
2023-02-18T06:56:44.067Z,5.54
2023-02-18T06:59:11.636Z,5.50
2023-02-18T07:01:38.054Z,5.73
2023-02-18T07:04:04.682Z,5.49
2023-02-18T07:06:31.237Z,5.56
2023-02-18T07:08:57.740Z,5.76
2023-02-18T07:11:24.203Z,5.96
2023-02-18T07:13:50.818Z,6.20
2023-02-18T07:16:17.322Z,5.75
2023-02-18T07:18:43.749Z,6.06
2023-02-18T07:21:11.562Z,6.20
2023-02-18T07:23:38.434Z,6.20
2023-02-18T07:26:10.168Z,6.64
2023-02-18T07:28:37.344Z,7.03
2023-02-18T07:31:04.069Z,6.69
2023-02-18T07:33:30.980Z,6.74
2023-02-18T07:35:59.553Z,6.67
2023-02-18T07:38:27.065Z,6.79
2023-02-18T07:40:54.383Z,6.98
2023-02-18T07:43:21.241Z,7.19
2023-02-18T07:45:47.969Z,6.91
2023-02-18T07:48:14.512Z,7.24
2023-02-18T07:50:42.427Z,7.43
2023-02-18T07:53:09.214Z,7.54
2023-02-18T07:55:51.611Z,8.42
2023-02-18T07:58:22.255Z,7.59
2023-02-18T08:00:49.513Z,7.98
2023-02-18T08:03:17.144Z,8.23
2023-02-18T08:05:44.174Z,8.01
2023-02-18T08:08:15.040Z,7.84
2023-02-18T08:10:41.751Z,8.06
2023-02-18T08:13:08.949Z,8.19
2023-02-18T08:15:35.437Z,8.98
2023-02-18T08:18:02.126Z,8.78
2023-02-18T08:20:30.587Z,8.57
2023-02-18T08:22:57.284Z,8.59
2023-02-18T08:25:29.369Z,9.33
2023-02-18T08:27:56.674Z,9.09
2023-02-18T08:30:23.243Z,8.97
2023-02-18T08:32:49.705Z,8.75
2023-02-18T08:35:16.193Z,8.94
2023-02-18T08:37:52.664Z,9.07
2023-02-18T08:40:20.662Z,9.20
2023-02-18T08:42:47.086Z,9.31
2023-02-18T08:45:13.527Z,9.38
2023-02-18T08:48:16.818Z,9.40
2023-02-18T08:50:28.157Z,9.94
2023-02-18T08:52:54.780Z,9.96
2023-02-18T08:55:21.429Z,10.04
2023-02-18T08:57:48.624Z,10.44
2023-02-18T09:00:16.596Z,10.62
2023-02-18T09:02:43.277Z,10.55
2023-02-18T09:05:09.791Z,10.91
2023-02-18T09:07:36.960Z,10.64
2023-02-18T09:10:04.304Z,10.41
2023-02-18T09:12:30.785Z,10.78
2023-02-18T09:14:57.382Z,11.21
2023-02-18T09:17:23.823Z,11.56
2023-02-18T09:19:50.323Z,12.69
2023-02-18T09:22:16.832Z,12.58
2023-02-18T09:24:43.508Z,13.59
2023-02-18T09:27:11.379Z,14.33
2023-02-18T09:29:39.444Z,15.00
2023-02-18T09:32:06.642Z,15.38
2023-02-18T09:34:33.270Z,15.86
2023-02-18T09:36:59.692Z,15.86
2023-02-18T09:39:26.748Z,16.33
2023-02-18T09:41:57.732Z,16.11
2023-02-18T09:44:29.371Z,16.99
2023-02-18T09:47:03.597Z,17.17
2023-02-18T09:49:33.607Z,16.91
2023-02-18T09:52:05.277Z,17.21
2023-02-18T09:54:31.735Z,17.55
2023-02-18T09:56:59.372Z,17.18
2023-02-18T09:59:26.651Z,17.34
2023-02-18T10:01:54.521Z,17.98
2023-02-18T10:04:27.326Z,17.36
2023-02-18T10:06:54.446Z,17.70
2023-02-18T10:09:21.397Z,18.54
2023-02-18T10:11:49.516Z,18.31
2023-02-18T10:14:16.188Z,17.69
2023-02-18T10:16:43.965Z,17.57
2023-02-18T10:19:16.605Z,17.31
2023-02-18T10:21:43.613Z,17.14
2023-02-18T10:24:10.108Z,16.67
2023-02-18T10:26:37.939Z,16.83
2023-02-18T10:29:04.561Z,17.99
2023-02-18T10:31:34.386Z,18.40
2023-02-18T10:34:07.064Z,18.72
2023-02-18T10:36:37.057Z,18.94
2023-02-18T10:39:03.529Z,18.56
2023-02-18T10:41:32.965Z,17.66
2023-02-18T10:44:05.972Z,19.56
2023-02-18T10:46:44.728Z,19.94
2023-02-18T10:49:20.175Z,19.59
2023-02-18T10:51:51.299Z,19.08
2023-02-18T10:54:17.781Z,19.98
2023-02-18T10:56:48.584Z,20.29
2023-02-18T10:59:22.600Z,20.46
2023-02-18T11:02:02.971Z,20.52
2023-02-18T11:04:39.741Z,19.51
2023-02-18T11:07:11.940Z,19.16
2023-02-18T11:09:38.399Z,20.27
2023-02-18T11:12:08.851Z,19.78
2023-02-18T11:14:58.860Z,19.83
2023-02-18T11:17:30.922Z,19.98
2023-02-18T11:19:59.124Z,19.95
2023-02-18T11:22:29.721Z,20.59
2023-02-18T11:24:57.528Z,20.69
2023-02-18T11:27:26.209Z,20.74
2023-02-18T11:29:54.608Z,21.31
2023-02-18T11:32:21.255Z,20.63
2023-02-18T11:34:49.642Z,19.79
2023-02-18T11:37:19.263Z,19.74
2023-02-18T11:39:47.472Z,19.81
2023-02-18T11:42:15.327Z,19.47
2023-02-18T11:44:48.076Z,18.39
2023-02-18T11:47:14.512Z,18.31
2023-02-18T11:49:42.286Z,18.01
2023-02-18T11:52:19.425Z,18.37
2023-02-18T11:55:02.973Z,18.34
2023-02-18T11:57:29.696Z,18.06
2023-02-18T11:59:57.084Z,17.46
2023-02-18T12:02:29.551Z,17.40
2023-02-18T12:05:03.384Z,18.04
2023-02-18T12:07:34.017Z,19.39
2023-02-18T12:10:04.331Z,18.96
2023-02-18T12:12:33.444Z,19.12
2023-02-18T12:15:00.277Z,18.67
2023-02-18T12:17:38.339Z,19.49
2023-02-18T12:20:31.312Z,20.05
2023-02-18T12:23:09.365Z,19.56
2023-02-18T12:25:40.145Z,19.20
2023-02-18T12:28:18.819Z,19.28
2023-02-18T12:30:53.910Z,18.82
2023-02-18T12:33:23.483Z,19.38
2023-02-18T12:36:00.614Z,19.34
2023-02-18T12:38:45.977Z,19.04
2023-02-18T12:41:27.688Z,19.11
2023-02-18T12:44:08.322Z,19.03
2023-02-18T12:46:40.997Z,18.39
2023-02-18T12:49:07.433Z,18.60
2023-02-18T12:51:50.087Z,18.29
2023-02-18T12:54:34.074Z,18.34
2023-02-18T12:57:14.739Z,17.89
2023-02-18T12:59:46.973Z,17.78
2023-02-18T13:02:25.166Z,18.19
2023-02-18T13:05:10.352Z,17.61
2023-02-18T13:07:47.259Z,18.00
2023-02-18T13:10:26.140Z,17.69
2023-02-18T13:13:07.936Z,17.25
2023-02-18T13:15:40.268Z,17.05
2023-02-18T13:18:11.590Z,16.97
2023-02-18T13:20:41.060Z,16.72
2023-02-18T13:23:11.010Z,17.53
2023-02-18T13:25:39.208Z,17.07
2023-02-18T13:28:20.939Z,16.28
2023-02-18T13:31:06.427Z,16.04
2023-02-18T13:33:57.586Z,15.95
2023-02-18T13:36:33.249Z,15.59
2023-02-18T13:39:07.971Z,15.60
2023-02-18T13:41:35.630Z,15.44
2023-02-18T13:44:07.120Z,15.80
2023-02-18T13:46:47.062Z,16.56
2023-02-18T13:49:13.919Z,15.88
2023-02-18T13:51:44.150Z,16.34
2023-02-18T13:54:10.544Z,15.87
2023-02-18T13:56:40.692Z,16.25
2023-02-18T13:59:17.171Z,15.17
2023-02-18T14:01:44.962Z,15.69
2023-02-18T14:04:32.048Z,16.32
2023-02-18T14:07:17.387Z,16.22
2023-02-18T14:09:43.858Z,16.28
2023-02-18T14:12:35.441Z,16.50
2023-02-18T14:15:02.019Z,16.82
2023-02-18T14:17:33.990Z,17.17
2023-02-18T14:20:00.437Z,17.04
2023-02-18T14:22:34.482Z,16.57
2023-02-18T14:25:21.190Z,16.60
2023-02-18T14:27:51.676Z,15.92
2023-02-18T14:30:33.674Z,15.80
2023-02-18T14:33:01.373Z,15.05
2023-02-18T14:35:34.928Z,15.02
2023-02-18T14:38:01.332Z,14.69
2023-02-18T14:40:37.283Z,14.64
2023-02-18T14:43:22.417Z,14.63
2023-02-18T14:46:01.914Z,14.90
2023-02-18T14:48:34.259Z,14.75
2023-02-18T14:51:01.222Z,14.73
2023-02-18T14:53:28.428Z,14.71
2023-02-18T14:55:58.322Z,15.10
2023-02-18T14:58:39.099Z,15.17
2023-02-18T15:01:06.813Z,14.65
2023-02-18T15:03:33.296Z,14.81
2023-02-18T15:05:59.736Z,15.04
2023-02-18T15:08:26.358Z,14.62
2023-02-18T15:10:52.792Z,14.33
2023-02-18T15:13:26.855Z,13.96
2023-02-18T15:15:57.828Z,14.12
2023-02-18T15:18:30.006Z,14.52
2023-02-18T15:20:56.758Z,14.59
2023-02-18T15:23:23.408Z,14.08
2023-02-18T15:25:51.788Z,14.03
2023-02-18T15:28:29.163Z,13.92
2023-02-18T15:30:56.764Z,14.06
2023-02-18T15:33:23.324Z,13.87
2023-02-18T15:35:49.900Z,13.98
2023-02-18T15:38:18.129Z,13.78
2023-02-18T15:40:47.033Z,13.40
2023-02-18T15:43:16.183Z,13.15
2023-02-18T15:45:44.409Z,13.08
2023-02-18T15:48:34.203Z,12.43
2023-02-18T15:51:16.768Z,12.34
2023-02-18T15:53:46.555Z,11.88
2023-02-18T15:56:18.328Z,11.67
2023-02-18T15:58:44.772Z,11.45
2023-02-18T16:01:26.317Z,11.61
2023-02-18T16:03:54.377Z,11.19
2023-02-18T16:06:28.856Z,10.78
2023-02-18T16:09:17.820Z,10.33
2023-02-18T16:11:46.346Z,10.01
2023-02-18T16:14:28.182Z,9.84
2023-02-18T16:17:03.869Z,10.03
2023-02-18T16:19:31.795Z,10.24
2023-02-18T16:21:58.347Z,9.84
2023-02-18T16:24:29.304Z,10.05
2023-02-18T16:26:59.723Z,10.04
2023-02-18T16:29:34.099Z,9.85
2023-02-18T16:32:00.659Z,9.56
2023-02-18T16:34:27.825Z,9.61
2023-02-18T16:37:13.530Z,9.48
2023-02-18T16:39:40.032Z,9.47
2023-02-18T16:42:12.617Z,9.31
2023-02-18T16:44:39.378Z,9.47
2023-02-18T16:47:06.361Z,9.19
2023-02-18T16:49:33.268Z,9.20
2023-02-18T16:52:01.293Z,9.15
2023-02-18T16:54:29.037Z,8.90
2023-02-18T16:56:55.608Z,8.40
2023-02-18T16:59:22.098Z,8.41
2023-02-18T17:01:48.659Z,8.21
2023-02-18T17:04:17.196Z,8.41
2023-02-18T17:06:45.177Z,8.45
2023-02-18T17:09:29.946Z,8.25
2023-02-18T17:11:56.475Z,8.36
2023-02-18T17:14:23.487Z,8.34
2023-02-18T17:16:51.783Z,8.22
2023-02-18T17:19:18.428Z,8.07
2023-02-18T17:21:46.987Z,8.13
2023-02-18T17:24:16.904Z,7.72
2023-02-18T17:26:43.796Z,7.79
2023-02-18T17:29:10.241Z,7.83
2023-02-18T17:31:38.787Z,7.76
2023-02-18T17:34:06.699Z,7.56
2023-02-18T17:36:33.572Z,7.52
2023-02-18T17:39:02.504Z,7.59
2023-02-18T17:41:29.131Z,7.35
2023-02-18T17:43:55.573Z,7.72
2023-02-18T17:46:22.252Z,7.56
2023-02-18T17:48:48.841Z,7.58
2023-02-18T17:51:22.258Z,7.41
2023-02-18T17:53:48.751Z,7.16
2023-02-18T17:56:15.668Z,8.26
2023-02-18T17:58:42.100Z,7.24
2023-02-18T18:01:09.565Z,7.02
2023-02-18T18:03:36.461Z,7.75
2023-02-18T18:06:04.509Z,6.98
2023-02-18T18:08:31.240Z,6.69
2023-02-18T18:10:59.217Z,6.51
2023-02-18T18:13:32.232Z,6.41
2023-02-18T18:15:58.731Z,6.44
2023-02-18T18:18:26.028Z,6.42
2023-02-18T18:20:54.461Z,6.48
2023-02-18T18:23:21.300Z,6.40
2023-02-18T18:25:49.522Z,6.50
2023-02-18T18:28:16.010Z,6.50
2023-02-18T18:30:50.188Z,6.34
2023-02-18T18:33:16.967Z,6.31
2023-02-18T18:35:45.866Z,6.26
2023-02-18T18:38:13.350Z,6.22
2023-02-18T18:40:40.357Z,6.06
2023-02-18T18:43:06.975Z,5.95
2023-02-18T18:45:39.962Z,5.87
2023-02-18T18:48:06.562Z,5.84
2023-02-18T18:50:41.792Z,5.96
2023-02-18T18:53:16.534Z,5.95
2023-02-18T18:55:43.096Z,5.96
2023-02-18T18:58:09.528Z,5.76
2023-02-18T19:00:37.795Z,5.86
2023-02-18T19:03:05.006Z,5.89
2023-02-18T19:05:33.452Z,5.80
2023-02-18T19:08:00.372Z,5.90
2023-02-18T19:10:28.585Z,5.58
2023-02-18T19:12:58.158Z,5.57
2023-02-18T19:15:24.660Z,5.80
2023-02-18T19:17:54.346Z,5.64
2023-02-18T19:20:22.628Z,5.59
2023-02-18T19:22:49.375Z,5.39
2023-02-18T19:25:16.304Z,5.23
2023-02-18T19:27:43.685Z,5.11
2023-02-18T19:30:12.964Z,5.27
2023-02-18T19:32:39.554Z,5.32
2023-02-18T19:35:06.193Z,5.19
2023-02-18T19:37:34.109Z,5.39
2023-02-18T19:40:00.875Z,5.27
2023-02-18T19:42:27.360Z,5.33
2023-02-18T19:44:56.871Z,5.31
2023-02-18T19:47:24.235Z,5.28
2023-02-18T19:49:51.345Z,5.46
2023-02-18T19:52:19.012Z,5.38
2023-02-18T19:54:45.662Z,5.25
2023-02-18T19:57:12.402Z,5.31
2023-02-18T19:59:38.910Z,5.32
2023-02-18T20:02:06.076Z,5.28
2023-02-18T20:04:32.721Z,5.40
2023-02-18T20:06:59.308Z,5.47
2023-02-18T20:09:26.082Z,5.41
2023-02-18T20:11:52.857Z,5.77
2023-02-18T20:14:20.231Z,5.62
2023-02-18T20:16:46.657Z,5.56
2023-02-18T20:19:13.300Z,5.40
2023-02-18T20:21:39.840Z,5.41
2023-02-18T20:24:06.660Z,5.37
2023-02-18T20:26:33.091Z,5.10
2023-02-18T20:28:59.527Z,5.05
2023-02-18T20:31:26.044Z,5.20
2023-02-18T20:33:55.546Z,5.35
2023-02-18T20:36:22.314Z,5.15
2023-02-18T20:38:51.721Z,5.48
2023-02-18T20:41:18.960Z,5.04
2023-02-18T20:43:46.116Z,4.94
2023-02-18T20:46:13.853Z,4.93
2023-02-18T20:48:40.387Z,4.77
2023-02-18T20:51:08.032Z,4.96
2023-02-18T20:53:35.624Z,4.84
2023-02-18T20:56:02.440Z,5.92
2023-02-18T20:58:28.955Z,5.26
2023-02-18T21:00:56.499Z,5.09
2023-02-18T21:03:22.946Z,4.78
2023-02-18T21:06:00.128Z,4.81
2023-02-18T21:08:27.226Z,4.86
2023-02-18T21:10:53.733Z,4.90
2023-02-18T21:13:20.508Z,4.94
2023-02-18T21:15:47.304Z,5.04
2023-02-18T21:18:14.624Z,4.89
2023-02-18T21:20:41.164Z,4.80
2023-02-18T21:23:07.685Z,5.69
2023-02-18T21:25:34.738Z,5.15
2023-02-18T21:28:01.552Z,5.08
2023-02-18T21:30:28.888Z,5.11
2023-02-18T21:32:56.340Z,5.46
2023-02-18T21:35:23.996Z,5.00
2023-02-18T21:37:50.861Z,4.88
2023-02-18T21:40:17.573Z,4.87
2023-02-18T21:42:44.084Z,4.76
2023-02-18T21:45:10.649Z,4.73
2023-02-18T21:47:37.769Z,4.71
2023-02-18T21:50:04.877Z,4.70
2023-02-18T21:52:32.279Z,4.60
2023-02-18T21:54:58.757Z,4.82
2023-02-18T21:57:25.267Z,4.55
2023-02-18T21:59:51.841Z,4.39
2023-02-18T22:02:20.136Z,4.40
2023-02-18T22:04:47.081Z,4.38
2023-02-18T22:07:13.821Z,4.22
2023-02-18T22:09:40.373Z,4.19
2023-02-18T22:12:07.314Z,4.03
2023-02-18T22:14:33.816Z,4.12
2023-02-18T22:17:00.323Z,4.17
2023-02-18T22:19:26.845Z,4.35
2023-02-18T22:21:53.323Z,4.26
2023-02-18T22:24:19.815Z,4.27
2023-02-18T22:26:46.614Z,4.27
2023-02-18T22:29:14.496Z,4.38
2023-02-18T22:31:41.241Z,4.37
2023-02-18T22:34:08.412Z,4.28
2023-02-18T22:36:34.848Z,4.28
2023-02-18T22:39:01.690Z,4.32
2023-02-18T22:41:28.944Z,4.35
2023-02-18T22:43:56.449Z,4.14
2023-02-18T22:46:23.028Z,4.29
2023-02-18T22:48:49.556Z,4.24
2023-02-18T22:51:17.672Z,4.17
2023-02-18T22:53:44.828Z,4.19
2023-02-18T22:56:12.874Z,4.39
2023-02-18T22:58:39.957Z,4.52
2023-02-18T23:01:07.025Z,4.22
2023-02-18T23:03:33.808Z,4.02
2023-02-18T23:06:04.287Z,3.82
2023-02-18T23:08:31.347Z,4.15
2023-02-18T23:11:05.274Z,3.98
2023-02-18T23:13:32.181Z,3.77
2023-02-18T23:15:59.360Z,3.74
2023-02-18T23:18:26.403Z,3.70
2023-02-18T23:21:11.986Z,3.74
2023-02-18T23:23:38.981Z,3.59
2023-02-18T23:26:05.859Z,3.65
2023-02-18T23:28:47.511Z,3.73
2023-02-18T23:31:18.190Z,3.65
2023-02-18T23:33:45.196Z,3.58
2023-02-18T23:36:13.163Z,3.65
2023-02-18T23:38:39.804Z,3.73
2023-02-18T23:41:06.965Z,3.74
2023-02-18T23:43:33.903Z,3.79
2023-02-18T23:46:00.418Z,3.73
2023-02-18T23:48:27.200Z,3.63
2023-02-18T23:51:00.371Z,3.04
2023-02-18T23:53:27.982Z,3.07
2023-02-18T23:56:02.787Z,3.27
2023-02-18T23:58:29.410Z,3.48
